Time;durP1;ratioP1;P1;durP2;ratioP2;P2;SDS_P1;SDS_P2;PMS_P1;PMS_P2;Temp;Humidity;BMP_temperature;BMP_pressure;BME280_temperature;BME280_humidity;BME280_pressure;Samples;Min_cycle;Max_cycle;Signal;HPM_P1;HPM_P2
2021/01/17 00:02:10;;;;;;;34.67;18.33;;;;;;;;;;6299757;22;20391;-76
2021/01/17 00:04:36;;;;;;;35.88;19.63;;;;;;;;;;6300360;22;20371;-77
2021/01/17 00:07:02;;;;;;;38.70;19.65;;;;;;;;;;6273543;22;20558;-77
2021/01/17 00:09:28;;;;;;;36.00;19.00;;;;;;;;;;6301189;22;20010;-75
2021/01/17 00:11:54;;;;;;;37.38;19.00;;;;;;;;;;6300235;22;20509;-77
2021/01/17 00:14:20;;;;;;;34.45;18.30;;;;;;;;;;6273645;22;20003;-77
2021/01/17 00:16:46;;;;;;;35.40;19.05;;;;;;;;;;6301465;22;20010;-77
2021/01/17 00:19:13;;;;;;;33.00;18.23;;;;;;;;;;6273325;22;20010;-80
2021/01/17 00:21:45;;;;;;;35.88;18.00;;;;;;;;;;6271735;22;20015;-80
2021/01/17 00:24:11;;;;;;;33.42;18.65;;;;;;;;;;6300077;22;20003;-79
2021/01/17 00:26:37;;;;;;;34.83;17.67;;;;;;;;;;6299952;22;20049;-79
2021/01/17 00:29:04;;;;;;;34.63;18.45;;;;;;;;;;6272786;22;20094;-80
2021/01/17 00:31:33;;;;;;;34.95;18.63;;;;;;;;;;6299501;22;20083;-79
2021/01/17 00:34:00;;;;;;;35.35;19.00;;;;;;;;;;6300164;22;20006;-80
2021/01/17 00:36:26;;;;;;;34.28;18.33;;;;;;;;;;6300212;22;20075;-78
2021/01/17 00:38:52;;;;;;;34.35;18.35;;;;;;;;;;6300276;22;20034;-80
2021/01/17 00:41:17;;;;;;;34.20;18.77;;;;;;;;;;6272092;22;20054;-79
2021/01/17 00:43:44;;;;;;;36.13;18.88;;;;;;;;;;6300265;22;20007;-79
2021/01/17 00:46:10;;;;;;;33.95;18.27;;;;;;;;;;6272665;22;20003;-79
2021/01/17 00:48:37;;;;;;;33.28;17.80;;;;;;;;;;6300120;22;20101;-79
2021/01/17 00:51:03;;;;;;;32.83;17.85;;;;;;;;;;6299279;22;20049;-80
2021/01/17 00:53:29;;;;;;;33.67;18.60;;;;;;;;;;6299802;22;20030;-81
2021/01/17 00:55:55;;;;;;;29.88;16.67;;;;;;;;;;6300157;22;20490;-80
2021/01/17 00:58:21;;;;;;;36.78;18.52;;;;;;;;;;6272433;22;20082;-80
2021/01/17 01:00:47;;;;;;;35.15;18.17;;;;;;;;;;6299444;22;20319;-80
2021/01/17 01:03:13;;;;;;;35.80;18.50;;;;;;;;;;6274250;22;20009;-79
2021/01/17 01:05:39;;;;;;;35.90;18.85;;;;;;;;;;6274399;22;20309;-79
2021/01/17 01:08:08;;;;;;;34.72;18.67;;;;;;;;;;6274555;22;20082;-79
2021/01/17 01:10:34;;;;;;;34.35;18.65;;;;;;;;;;6274596;22;20037;-80
2021/01/17 01:13:00;;;;;;;35.53;19.08;;;;;;;;;;6273906;22;20003;-80
2021/01/17 01:15:26;;;;;;;32.95;17.40;;;;;;;;;;6274711;22;20086;-79
2021/01/17 01:17:52;;;;;;;33.35;17.70;;;;;;;;;;6302129;22;19995;-79
2021/01/17 01:20:18;;;;;;;33.40;18.98;;;;;;;;;;6275195;22;20003;-80
2021/01/17 01:22:44;;;;;;;36.13;18.88;;;;;;;;;;6274090;22;20080;-80
2021/01/17 01:25:10;;;;;;;33.80;18.92;;;;;;;;;;6302129;22;20038;-79
2021/01/17 01:27:36;;;;;;;35.97;18.77;;;;;;;;;;6301685;22;20024;-80
2021/01/17 01:30:04;;;;;;;31.75;17.88;;;;;;;;;;6274011;22;20003;-79
2021/01/17 01:32:29;;;;;;;28.45;14.68;;;;;;;;;;6273574;22;20018;-80
2021/01/17 01:34:55;;;;;;;32.78;17.77;;;;;;;;;;6274061;22;19999;-79
2021/01/17 01:37:22;;;;;;;34.53;18.42;;;;;;;;;;6301912;22;20002;-79
2021/01/17 01:39:49;;;;;;;34.08;17.80;;;;;;;;;;6301397;22;20007;-79
2021/01/17 01:42:15;;;;;;;32.50;18.05;;;;;;;;;;6274465;22;20098;-79
2021/01/17 01:44:41;;;;;;;31.85;17.70;;;;;;;;;;6301570;22;20035;-79
2021/01/17 01:47:12;;;;;;;30.77;17.27;;;;;;;;;;6301572;22;19999;-79
2021/01/17 01:49:38;;;;;;;36.92;19.58;;;;;;;;;;6274123;22;20356;-79
2021/01/17 01:52:04;;;;;;;34.83;18.38;;;;;;;;;;6301455;22;20006;-79
2021/01/17 01:54:31;;;;;;;38.53;19.48;;;;;;;;;;6301747;22;20010;-79
2021/01/17 01:56:57;;;;;;;33.63;17.75;;;;;;;;;;6301798;22;19999;-79
2021/01/17 01:59:23;;;;;;;33.70;18.50;;;;;;;;;;6274119;22;20003;-79
2021/01/17 02:01:49;;;;;;;34.80;18.77;;;;;;;;;;6273501;22;20081;-80
2021/01/17 02:04:15;;;;;;;33.00;17.77;;;;;;;;;;6301497;22;20444;-79
2021/01/17 02:06:49;;;;;;;33.97;18.83;;;;;;;;;;6273807;22;20276;-80
2021/01/17 02:09:15;;;;;;;34.42;18.63;;;;;;;;;;6273918;22;20003;-80
2021/01/17 02:11:50;;;;;;;35.20;19.13;;;;;;;;;;6300728;22;20079;-79
2021/01/17 02:14:16;;;;;;;34.47;19.33;;;;;;;;;;6273456;22;19999;-79
2021/01/17 02:16:44;;;;;;;36.50;19.90;;;;;;;;;;6301334;22;20092;-80
2021/01/17 02:19:10;;;;;;;;;;;;;;;;;;6274265;22;20018;-77
2021/01/17 02:21:37;;;;;;;36.03;18.15;;;;;;;;;;6301226;22;19900;-80
2021/01/17 02:24:10;;;;;;;28.75;15.48;;;;;;;;;;6301170;22;20026;-79
2021/01/17 02:26:37;;;;;;;37.40;19.33;;;;;;;;;;6297256;22;19996;-79
2021/01/17 02:29:03;;;;;;;38.33;20.48;;;;;;;;;;6300173;22;20053;-80
2021/01/17 02:31:31;;;;;;;35.58;18.90;;;;;;;;;;6300421;22;20015;-80
2021/01/17 02:33:59;;;;;;;36.10;19.38;;;;;;;;;;6300406;22;20328;-79
2021/01/17 02:36:41;;;;;;;40.22;20.25;;;;;;;;;;6301029;22;20003;-79
2021/01/17 02:39:26;;;;;;;37.03;19.33;;;;;;;;;;6273763;22;20007;-79
2021/01/17 02:41:59;;;;;;;38.20;20.80;;;;;;;;;;6273087;22;20003;-80
2021/01/17 02:44:29;;;;;;;38.78;20.95;;;;;;;;;;6273859;22;20051;-79
2021/01/17 02:46:55;;;;;;;37.65;19.95;;;;;;;;;;6274116;22;20004;-79
2021/01/17 02:49:21;;;;;;;35.90;20.63;;;;;;;;;;6301219;22;20007;-77
2021/01/17 02:51:48;;;;;;;38.25;20.25;;;;;;;;;;6300173;22;20030;-79
2021/01/17 02:54:16;;;;;;;36.17;20.05;;;;;;;;;;6300835;22;20003;-80
2021/01/17 02:56:47;;;;;;;34.85;19.15;;;;;;;;;;6300938;22;20014;-80
2021/01/17 02:59:14;;;;;;;35.55;18.77;;;;;;;;;;6300522;22;20078;-78
2021/01/17 03:01:41;;;;;;;38.70;20.33;;;;;;;;;;6274635;22;20004;-79
2021/01/17 03:04:24;;;;;;;36.08;19.55;;;;;;;;;;6276735;22;19999;-79
2021/01/17 03:06:50;;;;;;;37.72;19.85;;;;;;;;;;6276945;22;19999;-80
2021/01/17 03:09:16;;;;;;;37.30;19.38;;;;;;;;;;6304009;22;20007;-80
2021/01/17 03:11:42;;;;;;;34.35;19.40;;;;;;;;;;6304121;22;20038;-79
2021/01/17 03:14:09;;;;;;;36.10;19.55;;;;;;;;;;6276504;22;20402;-79
2021/01/17 03:16:35;;;;;;;38.83;20.48;;;;;;;;;;6276770;22;20206;-79
2021/01/17 03:19:01;;;;;;;36.60;19.55;;;;;;;;;;6304081;22;19999;-79
2021/01/17 03:21:27;;;;;;;37.83;20.83;;;;;;;;;;6303851;22;20023;-79
2021/01/17 03:23:53;;;;;;;36.53;19.67;;;;;;;;;;6303976;22;20062;-80
2021/01/17 03:26:19;;;;;;;36.53;21.15;;;;;;;;;;6303457;22;20349;-79
2021/01/17 03:28:45;;;;;;;41.05;21.65;;;;;;;;;;6303849;22;20478;-80
2021/01/17 03:31:11;;;;;;;36.25;20.98;;;;;;;;;;6303638;22;20006;-79
2021/01/17 03:33:37;;;;;;;39.42;21.15;;;;;;;;;;6303722;22;20018;-79
2021/01/17 03:36:04;;;;;;;37.00;20.38;;;;;;;;;;6303707;22;20049;-80
2021/01/17 03:38:29;;;;;;;38.15;21.27;;;;;;;;;;6276183;22;20042;-79
2021/01/17 03:40:55;;;;;;;38.92;20.83;;;;;;;;;;6303555;22;20324;-79
2021/01/17 03:43:21;;;;;;;40.30;21.80;;;;;;;;;;6303631;22;20000;-80
2021/01/17 03:45:47;;;;;;;36.40;20.27;;;;;;;;;;6303851;22;20401;-79
2021/01/17 03:48:13;;;;;;;36.90;20.63;;;;;;;;;;6303692;22;20003;-79
2021/01/17 03:50:39;;;;;;;36.13;20.35;;;;;;;;;;6303598;22;20086;-79
2021/01/17 03:53:05;;;;;;;37.95;20.67;;;;;;;;;;6303272;22;20526;-79
2021/01/17 03:55:31;;;;;;;38.90;21.77;;;;;;;;;;6276324;22;20027;-80
2021/01/17 03:57:57;;;;;;;36.30;19.90;;;;;;;;;;6276120;22;20007;-79
2021/01/17 04:00:23;;;;;;;38.40;21.60;;;;;;;;;;6276231;22;20381;-79
2021/01/17 04:02:49;;;;;;;37.40;21.30;;;;;;;;;;6301439;22;20010;-79
2021/01/17 04:05:15;;;;;;;38.13;20.67;;;;;;;;;;6273559;22;20319;-79
2021/01/17 04:07:41;;;;;;;38.03;21.23;;;;;;;;;;6301168;22;19995;-79
2021/01/17 04:10:07;;;;;;;39.60;20.98;;;;;;;;;;6301112;22;20000;-80
2021/01/17 04:12:34;;;;;;;39.80;21.67;;;;;;;;;;6298702;22;20050;-79
2021/01/17 04:15:00;;;;;;;38.27;20.93;;;;;;;;;;6272401;22;20003;-80
2021/01/17 04:17:26;;;;;;;38.17;21.33;;;;;;;;;;6300409;22;20287;-79
2021/01/17 04:19:52;;;;;;;38.70;21.83;;;;;;;;;;6300154;22;20379;-80
2021/01/17 04:22:18;;;;;;;37.95;21.40;;;;;;;;;;6272488;22;20451;-80
2021/01/17 04:24:44;;;;;;;39.03;21.70;;;;;;;;;;6300038;22;20121;-79
2021/01/17 04:27:10;;;;;;;39.65;21.95;;;;;;;;;;6299486;22;20442;-80
2021/01/17 04:29:36;;;;;;;40.28;21.60;;;;;;;;;;6272564;22;20014;-80
2021/01/17 04:32:02;;;;;;;38.70;20.95;;;;;;;;;;6299291;22;20451;-80
2021/01/17 04:34:30;;;;;;;39.92;21.42;;;;;;;;;;6300441;22;20049;-80
2021/01/17 04:36:56;;;;;;;41.72;22.83;;;;;;;;;;6273439;22;20386;-79
2021/01/17 04:39:22;;;;;;;39.33;21.13;;;;;;;;;;6302096;22;19995;-79
2021/01/17 04:41:50;;;;;;;40.58;22.85;;;;;;;;;;6273975;22;20007;-79
2021/01/17 04:44:16;;;;;;;;;;;;;;;;;;6302772;22;20006;-80
2021/01/17 04:46:42;;;;;;;38.58;20.35;;;;;;;;;;6274632;22;19899;-79
2021/01/17 04:49:09;;;;;;;39.80;21.95;;;;;;;;;;6274974;22;20086;-79
2021/01/17 04:51:35;;;;;;;41.33;22.42;;;;;;;;;;6301857;22;20102;-80
2021/01/17 04:54:03;;;;;;;40.28;22.17;;;;;;;;;;6274601;22;20072;-79
2021/01/17 04:56:29;;;;;;;40.25;22.15;;;;;;;;;;6274514;22;20007;-79
2021/01/17 04:59:10;;;;;;;38.75;21.70;;;;;;;;;;6274450;22;20011;-79
2021/01/17 05:01:42;;;;;;;40.80;21.40;;;;;;;;;;6273911;22;20004;-81
2021/01/17 05:04:27;;;;;;;39.15;21.13;;;;;;;;;;6274569;22;20007;-82
2021/01/17 05:06:57;;;;;;;41.63;22.27;;;;;;;;;;6302154;22;20007;-80
2021/01/17 05:09:29;;;;;;;43.30;23.15;;;;;;;;;;6274800;22;19999;-79
2021/01/17 05:11:56;;;;;;;40.08;22.10;;;;;;;;;;6273459;22;20053;-80
2021/01/17 05:14:27;;;;;;;40.17;22.42;;;;;;;;;;6302118;22;20006;-79
2021/01/17 05:16:57;;;;;;;43.83;22.60;;;;;;;;;;6302228;22;20408;-79
2021/01/17 05:19:23;;;;;;;40.83;21.77;;;;;;;;;;6302273;22;20003;-79
2021/01/17 05:21:50;;;;;;;41.15;21.10;;;;;;;;;;6301332;22;20006;-80
2021/01/17 05:24:17;;;;;;;42.97;22.90;;;;;;;;;;6274305;22;19999;-80
2021/01/17 05:26:56;;;;;;;42.97;22.30;;;;;;;;;;6301768;22;19999;-79
2021/01/17 05:29:23;;;;;;;40.65;22.58;;;;;;;;;;6301728;22;20000;-80
2021/01/17 05:31:50;;;;;;;41.60;21.98;;;;;;;;;;6301156;22;20038;-80
2021/01/17 05:34:19;;;;;;;42.22;22.50;;;;;;;;;;6301692;22;20148;-80
2021/01/17 05:36:46;;;;;;;40.60;21.77;;;;;;;;;;6274405;22;20007;-80
2021/01/17 05:39:12;;;;;;;42.15;22.48;;;;;;;;;;6301542;22;20014;-79
2021/01/17 05:41:38;;;;;;;39.60;22.23;;;;;;;;;;6300963;22;19999;-80
2021/01/17 05:44:04;;;;;;;42.88;23.05;;;;;;;;;;6301371;22;20049;-79
2021/01/17 05:46:30;;;;;;;41.10;22.25;;;;;;;;;;6274347;22;20003;-79
2021/01/17 05:49:09;;;;;;;39.17;21.65;;;;;;;;;;6273566;22;19999;-79
2021/01/17 05:51:35;;;;;;;43.20;22.52;;;;;;;;;;6300693;22;20007;-80
2021/01/17 05:54:06;;;;;;;43.83;23.02;;;;;;;;;;6301397;22;20072;-80
2021/01/17 05:56:34;;;;;;;44.90;23.40;;;;;;;;;;6301514;22;20011;-80
2021/01/17 05:59:00;;;;;;;42.17;21.60;;;;;;;;;;6301263;22;19999;-80
2021/01/17 06:01:27;;;;;;;41.40;22.80;;;;;;;;;;6301250;22;20729;-79
2021/01/17 06:03:54;;;;;;;43.88;22.95;;;;;;;;;;6301660;22;20065;-80
2021/01/17 06:06:27;;;;;;;41.40;22.30;;;;;;;;;;6301789;22;20000;-79
2021/01/17 06:08:57;;;;;;;42.47;23.38;;;;;;;;;;6301416;22;20459;-79
2021/01/17 06:11:23;;;;;;;41.50;22.88;;;;;;;;;;6300787;22;20003;-79
2021/01/17 06:14:07;;;;;;;50.67;28.63;;;;;;;;;;6301526;22;20082;-80
2021/01/17 06:16:40;;;;;;;50.85;27.38;;;;;;;;;;6301325;22;20335;-80
2021/01/17 06:19:07;;;;;;;44.95;24.67;;;;;;;;;;6274050;22;20436;-79
2021/01/17 06:21:34;;;;;;;44.83;23.25;;;;;;;;;;6273106;22;20395;-80
2021/01/17 06:24:00;;;;;;;46.03;23.23;;;;;;;;;;6301382;22;20003;-80
2021/01/17 06:26:30;;;;;;;45.20;22.90;;;;;;;;;;6273720;22;20026;-79
2021/01/17 06:28:57;;;;;;;40.67;21.33;;;;;;;;;;6301319;22;20052;-79
2021/01/17 06:31:27;;;;;;;42.90;22.88;;;;;;;;;;6300449;22;20003;-79
2021/01/17 06:33:53;;;;;;;44.80;23.42;;;;;;;;;;6273863;22;20599;-79
2021/01/17 06:36:19;;;;;;;44.60;22.83;;;;;;;;;;6300961;22;20094;-78
2021/01/17 06:38:45;;;;;;;44.35;22.95;;;;;;;;;;6301108;22;20130;-79
2021/01/17 06:41:12;;;;;;;42.33;22.15;;;;;;;;;;6272804;22;20003;-79
2021/01/17 06:43:39;;;;;;;41.20;23.48;;;;;;;;;;6273350;22;19999;-79
2021/01/17 06:46:05;;;;;;;42.10;22.13;;;;;;;;;;6273769;22;19999;-79
2021/01/17 06:48:31;;;;;;;42.13;22.75;;;;;;;;;;6301060;22;20003;-79
2021/01/17 06:51:15;;;;;;;40.33;22.35;;;;;;;;;;6272617;22;20462;-80
2021/01/17 06:53:50;;;;;;;42.53;23.02;;;;;;;;;;6300862;22;20102;-80
2021/01/17 06:56:19;;;;;;;41.03;23.60;;;;;;;;;;6301064;22;19999;-79
2021/01/17 06:58:45;;;;;;;55.25;24.63;;;;;;;;;;6300847;22;20018;-80
2021/01/17 07:01:11;;;;;;;50.97;26.52;;;;;;;;;;6300105;22;20002;-79
2021/01/17 07:04:03;;;;;;;53.38;26.38;;;;;;;;;;6273185;22;20038;-79
2021/01/17 07:06:29;;;;;;;51.47;26.65;;;;;;;;;;6272797;22;20003;-79
2021/01/17 07:09:06;;;;;;;50.20;26.20;;;;;;;;;;6300003;22;20026;-79
2021/01/17 07:11:40;;;;;;;51.95;24.83;;;;;;;;;;6299367;22;19999;-80
2021/01/17 07:14:07;;;;;;;49.08;24.80;;;;;;;;;;6299671;22;20006;-79
2021/01/17 07:16:33;;;;;;;51.30;28.63;;;;;;;;;;6272607;22;20436;-79
2021/01/17 07:19:02;;;;;;;47.45;24.98;;;;;;;;;;6272833;22;20616;-80
2021/01/17 07:21:33;;;;;;;54.97;25.80;;;;;;;;;;6300023;22;19995;-78
2021/01/17 07:24:02;;;;;;;58.40;26.90;;;;;;;;;;6273066;22;20038;-79
2021/01/17 07:26:35;;;;;;;57.13;26.77;;;;;;;;;;6300659;22;19999;-78
2021/01/17 07:29:03;;;;;;;48.92;25.75;;;;;;;;;;6300705;22;20003;-79
2021/01/17 07:31:36;;;;;;;50.38;25.55;;;;;;;;;;6300024;22;20014;-80
2021/01/17 07:34:05;;;;;;;45.55;24.55;;;;;;;;;;6300671;22;20078;-79
2021/01/17 07:36:33;;;;;;;53.92;26.35;;;;;;;;;;6300259;22;20017;-79
2021/01/17 07:39:03;;;;;;;48.83;24.55;;;;;;;;;;6300420;22;20010;-78
2021/01/17 07:41:29;;;;;;;51.65;25.77;;;;;;;;;;6272535;22;19999;-80
2021/01/17 07:43:58;;;;;;;49.33;25.85;;;;;;;;;;6273219;22;20082;-80
2021/01/17 07:46:28;;;;;;;52.58;26.38;;;;;;;;;;6300496;22;19996;-80
2021/01/17 07:48:54;;;;;;;54.85;26.38;;;;;;;;;;6273063;22;20006;-80
2021/01/17 07:51:20;;;;;;;51.53;27.25;;;;;;;;;;6271840;22;20308;-80
2021/01/17 07:53:57;;;;;;;54.00;27.20;;;;;;;;;;6300266;22;20419;-79
2021/01/17 07:56:30;;;;;;;53.53;26.08;;;;;;;;;;6300468;22;20003;-79
2021/01/17 07:59:00;;;;;;;47.72;25.52;;;;;;;;;;6300250;22;20010;-80
2021/01/17 08:01:35;;;;;;;48.95;26.13;;;;;;;;;;6299860;22;20435;-80
2021/01/17 08:04:11;;;;;;;48.78;25.90;;;;;;;;;;6300703;22;20018;-78
2021/01/17 08:06:37;;;;;;;46.78;25.73;;;;;;;;;;6299583;22;20025;-79
2021/01/17 08:09:06;;;;;;;49.03;24.85;;;;;;;;;;6300340;22;20055;-80
2021/01/17 08:11:57;;;;;;;48.25;25.52;;;;;;;;;;6299443;22;20007;-80
2021/01/17 08:14:35;;;;;;;46.90;24.23;;;;;;;;;;6300080;22;20101;-80
2021/01/17 08:17:20;;;;;;;46.83;24.42;;;;;;;;;;6300248;22;20000;-81
2021/01/17 08:20:02;;;;;;;46.97;23.80;;;;;;;;;;6300447;22;20009;-79
2021/01/17 08:22:28;;;;;;;48.42;25.52;;;;;;;;;;6299670;22;20000;-79
2021/01/17 08:24:55;;;;;;;48.20;25.48;;;;;;;;;;6300604;22;19995;-79
2021/01/17 08:27:30;;;;;;;51.50;26.00;;;;;;;;;;6272794;22;20052;-80
2021/01/17 08:32:52;;;;;;;47.47;24.90;;;;;;;;;;6299578;22;20022;-80
2021/01/17 08:35:20;;;;;;;58.78;28.45;;;;;;;;;;6280574;22;20011;-78
2021/01/17 08:37:52;;;;;;;53.80;28.65;;;;;;;;;;6299941;22;20003;-80
2021/01/17 08:40:28;;;;;;;52.42;29.40;;;;;;;;;;6272923;22;20045;-80
2021/01/17 08:42:55;;;;;;;50.80;28.15;;;;;;;;;;6271973;22;20082;-79
2021/01/17 08:45:21;;;;;;;52.97;26.55;;;;;;;;;;6272985;22;20003;-80
2021/01/17 08:47:48;;;;;;;45.42;24.90;;;;;;;;;;6273070;22;19995;-79
2021/01/17 08:50:27;;;;;;;52.45;27.70;;;;;;;;;;6272846;22;19999;-79
2021/01/17 08:52:54;;;;;;;48.22;25.67;;;;;;;;;;6272173;22;20078;-79
2021/01/17 08:55:35;;;;;;;58.30;28.40;;;;;;;;;;6272893;22;20408;-81
2021/01/17 08:58:01;;;;;;;50.35;26.98;;;;;;;;;;6273344;22;20007;-79
2021/01/17 09:00:47;;;;;;;44.63;26.45;;;;;;;;;;6273349;22;20092;-79
2021/01/17 09:03:28;;;;;;;47.10;26.67;;;;;;;;;;6300296;22;20002;-79
2021/01/17 09:06:01;;;;;;;50.03;25.95;;;;;;;;;;6300409;22;20002;-79
2021/01/17 09:08:28;;;;;;;46.00;25.55;;;;;;;;;;6272752;22;19999;-81
2021/01/17 09:10:54;;;;;;;46.90;26.25;;;;;;;;;;6299965;22;20027;-81
2021/01/17 09:13:27;;;;;;;50.55;25.80;;;;;;;;;;6300450;22;20003;-80
2021/01/17 09:15:59;;;;;;;42.80;24.42;;;;;;;;;;6300454;22;20022;-79
2021/01/17 09:18:26;;;;;;;50.15;27.05;;;;;;;;;;6300259;22;20002;-80
2021/01/17 09:20:52;;;;;;;51.63;27.60;;;;;;;;;;6272373;22;20008;-79
2021/01/17 09:23:19;;;;;;;61.25;30.77;;;;;;;;;;6300659;22;19999;-80
2021/01/17 09:25:47;;;;;;;55.70;29.75;;;;;;;;;;6274404;22;20011;-80
2021/01/17 09:28:14;;;;;;;51.10;27.02;;;;;;;;;;6274499;22;20014;-80
2021/01/17 09:30:47;;;;;;;47.00;25.27;;;;;;;;;;6300789;22;20007;-79
2021/01/17 09:33:14;;;;;;;47.58;25.15;;;;;;;;;;6273744;22;20034;-80
2021/01/17 09:35:40;;;;;;;43.67;23.15;;;;;;;;;;6273969;22;20011;-76
2021/01/17 09:38:07;;;;;;;33.00;19.83;;;;;;;;;;6273692;22;20014;-78
2021/01/17 09:40:43;;;;;;;32.10;19.23;;;;;;;;;;6301446;22;20007;-79
2021/01/17 09:43:09;;;;;;;34.20;20.50;;;;;;;;;;6273868;22;20007;-78
2021/01/17 09:45:35;;;;;;;42.13;22.42;;;;;;;;;;6301913;22;20776;-77
2021/01/17 09:48:02;;;;;;;35.80;20.75;;;;;;;;;;6301244;22;19999;-77
2021/01/17 09:50:32;;;;;;;32.45;19.52;;;;;;;;;;6301454;22;19995;-78
2021/01/17 09:53:04;;;;;;;31.50;18.98;;;;;;;;;;6301331;22;20313;-78
2021/01/17 09:55:30;;;;;;;33.63;19.08;;;;;;;;;;6302397;22;19995;-79
2021/01/17 09:57:59;;;;;;;32.38;19.20;;;;;;;;;;6302281;22;19999;-80
2021/01/17 10:00:25;;;;;;;31.50;18.30;;;;;;;;;;6302139;22;20006;-78
2021/01/17 10:02:53;;;;;;;32.35;19.25;;;;;;;;;;6273742;22;20331;-79
2021/01/17 10:05:38;;;;;;;33.55;19.15;;;;;;;;;;6302124;22;20011;-79
2021/01/17 10:08:08;;;;;;;29.58;17.90;;;;;;;;;;6301831;22;20070;-79
2021/01/17 10:10:35;;;;;;;31.35;19.02;;;;;;;;;;6273976;22;20049;-79
2021/01/17 10:13:01;;;;;;;32.42;19.23;;;;;;;;;;6272961;22;19999;-80
2021/01/17 10:15:27;;;;;;;31.77;19.10;;;;;;;;;;6301600;22;20108;-78
2021/01/17 10:17:53;;;;;;;33.92;19.98;;;;;;;;;;6301522;22;20133;-79
2021/01/17 10:20:23;;;;;;;32.10;18.65;;;;;;;;;;6301236;22;19995;-79
2021/01/17 10:22:56;;;;;;;31.20;19.17;;;;;;;;;;6272878;22;20112;-78
2021/01/17 10:25:22;;;;;;;32.97;19.38;;;;;;;;;;6301191;22;20026;-78
2021/01/17 10:27:48;;;;;;;31.40;19.33;;;;;;;;;;6301661;22;19995;-78
2021/01/17 10:30:20;;;;;;;30.08;18.83;;;;;;;;;;6301856;22;20108;-78
2021/01/17 10:32:46;;;;;;;31.73;19.13;;;;;;;;;;6300941;22;20037;-77
2021/01/17 10:35:12;;;;;;;31.58;18.83;;;;;;;;;;6273956;22;20044;-77
2021/01/17 10:37:39;;;;;;;30.05;17.73;;;;;;;;;;6301761;22;20038;-79
2021/01/17 10:40:06;;;;;;;30.48;18.20;;;;;;;;;;6301399;22;20606;-78
2021/01/17 10:42:33;;;;;;;29.15;17.23;;;;;;;;;;6300874;22;20078;-78
2021/01/17 10:45:04;;;;;;;31.40;18.08;;;;;;;;;;6269260;22;20623;-78
2021/01/17 10:47:49;;;;;;;31.27;17.08;;;;;;;;;;6301954;22;20447;-78
2021/01/17 10:50:20;;;;;;;28.73;17.10;;;;;;;;;;6301723;22;20120;-78
2021/01/17 10:53:11;;;;;;;29.63;17.08;;;;;;;;;;6300881;22;20474;-77
2021/01/17 10:55:38;;;;;;;27.65;16.67;;;;;;;;;;6301539;22;20082;-79
2021/01/17 10:58:05;;;;;;;27.27;15.88;;;;;;;;;;6274003;22;20011;-77
2021/01/17 11:00:31;;;;;;;27.42;15.65;;;;;;;;;;6273999;22;20001;-79
2021/01/17 11:03:10;;;;;;;28.10;16.13;;;;;;;;;;6300964;22;20003;-78
2021/01/17 11:05:36;;;;;;;25.42;16.10;;;;;;;;;;6301517;22;20766;-78
2021/01/17 11:08:03;;;;;;;34.40;16.17;;;;;;;;;;6273493;22;20386;-78
2021/01/17 11:10:29;;;;;;;27.67;15.05;;;;;;;;;;6301199;22;20024;-78
2021/01/17 11:12:55;;;;;;;27.05;14.68;;;;;;;;;;6300941;22;20000;-78
2021/01/17 11:15:22;;;;;;;24.98;14.63;;;;;;;;;;6301152;22;19996;-79
2021/01/17 11:17:55;;;;;;;23.25;15.00;;;;;;;;;;6301369;22;20010;-80
2021/01/17 11:20:25;;;;;;;24.52;14.38;;;;;;;;;;6301884;22;20010;-80
2021/01/17 11:22:52;;;;;;;27.15;14.93;;;;;;;;;;6300572;22;19996;-79
2021/01/17 11:25:19;;;;;;;26.90;13.53;;;;;;;;;;6301343;22;20419;-80
2021/01/17 11:27:46;;;;;;;23.20;13.55;;;;;;;;;;6274212;22;20214;-80
2021/01/17 11:30:13;;;;;;;24.50;13.80;;;;;;;;;;6300886;22;20003;-80
2021/01/17 11:32:39;;;;;;;26.90;14.40;;;;;;;;;;6300084;22;20125;-79
2021/01/17 11:35:05;;;;;;;25.88;14.02;;;;;;;;;;6274179;22;20000;-79
2021/01/17 11:37:32;;;;;;;28.98;15.85;;;;;;;;;;6300935;22;20461;-80
2021/01/17 11:40:09;;;;;;;24.10;12.67;;;;;;;;;;6300935;22;20420;-78
2021/01/17 11:42:35;;;;;;;23.87;12.53;;;;;;;;;;6300681;22;20214;-79
2021/01/17 11:45:14;;;;;;;22.17;13.40;;;;;;;;;;6301224;22;20213;-77
2021/01/17 11:47:42;;;;;;;28.13;14.07;;;;;;;;;;6273172;22;20060;-76
2021/01/17 11:50:15;;;;;;;29.20;14.50;;;;;;;;;;6300705;22;20025;-77
2021/01/17 11:52:43;;;;;;;27.73;14.57;;;;;;;;;;6300233;22;20003;-79
2021/01/17 11:55:09;;;;;;;;;;;;;;;;;;6301890;22;20532;-80
2021/01/17 11:57:35;;;;;;;23.52;13.35;;;;;;;;;;6273453;22;19973;-78
2021/01/17 12:00:05;;;;;;;29.90;14.65;;;;;;;;;;6301077;22;20023;-79
2021/01/17 12:02:38;;;;;;;22.42;14.13;;;;;;;;;;6273571;22;20057;-77
2021/01/17 12:05:04;;;;;;;19.17;12.40;;;;;;;;;;6300249;22;20026;-79
2021/01/17 12:07:31;;;;;;;19.80;12.50;;;;;;;;;;6300809;22;19992;-75
2021/01/17 12:10:09;;;;;;;21.83;12.75;;;;;;;;;;6300294;22;19995;-76
2021/01/17 12:12:36;;;;;;;24.52;12.57;;;;;;;;;;6299387;22;20440;-75
2021/01/17 12:15:04;;;;;;;20.95;12.27;;;;;;;;;;6300216;22;20331;-76
2021/01/17 12:17:30;;;;;;;21.90;12.13;;;;;;;;;;6300384;22;20010;-76
2021/01/17 12:19:56;;;;;;;25.20;13.43;;;;;;;;;;6272360;22;20007;-75
2021/01/17 12:22:22;;;;;;;20.63;13.15;;;;;;;;;;6272089;22;20018;-77
2021/01/17 12:24:48;;;;;;;21.25;12.68;;;;;;;;;;6299077;22;19996;-77
2021/01/17 12:27:14;;;;;;;22.33;13.23;;;;;;;;;;6300348;22;19999;-75
2021/01/17 12:29:40;;;;;;;23.13;13.63;;;;;;;;;;6300515;22;20449;-77
2021/01/17 12:32:06;;;;;;;23.08;13.75;;;;;;;;;;6271285;22;20015;-78
2021/01/17 12:34:32;;;;;;;21.98;13.40;;;;;;;;;;6299656;22;20011;-76
2021/01/17 12:36:58;;;;;;;24.70;13.75;;;;;;;;;;6272070;22;20007;-78
2021/01/17 12:39:24;;;;;;;23.00;13.40;;;;;;;;;;6300113;22;20642;-78
2021/01/17 12:41:51;;;;;;;26.10;12.48;;;;;;;;;;6299163;22;20074;-77
2021/01/17 12:44:18;;;;;;;22.30;12.48;;;;;;;;;;6271995;22;20004;-77
2021/01/17 12:46:45;;;;;;;22.63;12.18;;;;;;;;;;6299955;22;19999;-77
2021/01/17 12:49:13;;;;;;;21.88;12.77;;;;;;;;;;6299825;22;20011;-77
2021/01/17 12:51:39;;;;;;;18.77;12.27;;;;;;;;;;6271211;22;20003;-76
2021/01/17 12:54:05;;;;;;;19.95;12.10;;;;;;;;;;6299871;22;20030;-77
2021/01/17 12:56:31;;;;;;;20.95;12.60;;;;;;;;;;6272325;22;20102;-78
2021/01/17 12:58:57;;;;;;;23.13;12.75;;;;;;;;;;6303007;22;20013;-82
2021/01/17 13:01:23;;;;;;;23.35;12.57;;;;;;;;;;6309448;22;20000;-76
2021/01/17 13:03:49;;;;;;;23.73;12.70;;;;;;;;;;6278682;22;20266;-79
2021/01/17 13:06:16;;;;;;;21.05;12.80;;;;;;;;;;6305314;22;20006;-75
2021/01/17 13:08:43;;;;;;;22.42;13.32;;;;;;;;;;6303894;22;20026;-76
2021/01/17 13:11:10;;;;;;;19.27;12.63;;;;;;;;;;6305436;22;20010;-76
2021/01/17 13:13:36;;;;;;;23.15;13.13;;;;;;;;;;6304258;22;20385;-76
2021/01/17 13:16:04;;;;;;;25.10;14.02;;;;;;;;;;6301270;22;20593;-77
2021/01/17 13:18:30;;;;;;;21.42;13.43;;;;;;;;;;6273703;22;20007;-77
2021/01/17 13:20:58;;;;;;;23.88;12.68;;;;;;;;;;6300508;22;20003;-76
2021/01/17 13:23:24;;;;;;;20.98;12.07;;;;;;;;;;6301398;22;20000;-76
2021/01/17 13:25:50;;;;;;;20.55;12.88;;;;;;;;;;6301675;22;20027;-75
2021/01/17 13:28:16;;;;;;;22.83;13.25;;;;;;;;;;6300809;22;20064;-76
2021/01/17 13:30:43;;;;;;;22.80;13.30;;;;;;;;;;6300976;22;19999;-76
2021/01/17 13:33:13;;;;;;;24.77;13.93;;;;;;;;;;6301486;22;20012;-75
2021/01/17 13:35:59;;;;;;;22.10;12.88;;;;;;;;;;6301446;22;20495;-77
2021/01/17 13:38:25;;;;;;;23.23;13.18;;;;;;;;;;6274217;22;20003;-77
2021/01/17 13:40:52;;;;;;;25.45;13.73;;;;;;;;;;6273487;22;20003;-75
2021/01/17 13:43:19;;;;;;;22.08;13.73;;;;;;;;;;6301786;22;19995;-77
2021/01/17 13:45:45;;;;;;;25.08;14.18;;;;;;;;;;6301953;22;20321;-75
2021/01/17 13:48:11;;;;;;;23.48;14.02;;;;;;;;;;6274542;22;20010;-77
2021/01/17 13:50:38;;;;;;;26.30;13.93;;;;;;;;;;6273912;22;20094;-78
2021/01/17 13:53:04;;;;;;;26.23;13.88;;;;;;;;;;6300692;22;19999;-76
2021/01/17 13:55:31;;;;;;;27.63;14.63;;;;;;;;;;6301384;22;19999;-76
2021/01/17 13:57:57;;;;;;;26.08;15.65;;;;;;;;;;6273302;22;20038;-76
2021/01/17 14:00:24;;;;;;;22.02;14.25;;;;;;;;;;6299592;22;19995;-76
2021/01/17 14:02:50;;;;;;;23.73;13.68;;;;;;;;;;6299236;22;20008;-77
2021/01/17 14:05:16;;;;;;;29.85;15.75;;;;;;;;;;6273173;22;20317;-77
2021/01/17 14:07:48;;;;;;;22.63;14.52;;;;;;;;;;6302452;22;20460;-76
2021/01/17 14:10:14;;;;;;;21.40;13.60;;;;;;;;;;6274981;22;20011;-76
2021/01/17 14:12:43;;;;;;;24.02;13.95;;;;;;;;;;6302227;22;20003;-77
2021/01/17 14:15:10;;;;;;;24.40;14.68;;;;;;;;;;6275115;22;20416;-77
2021/01/17 14:17:36;;;;;;;25.77;14.50;;;;;;;;;;6301667;22;20007;-77
2021/01/17 14:20:03;;;;;;;23.73;13.25;;;;;;;;;;6301173;22;19999;-77
2021/01/17 14:22:29;;;;;;;24.10;14.27;;;;;;;;;;6301019;22;20043;-77
2021/01/17 14:24:55;;;;;;;21.35;13.55;;;;;;;;;;6299182;22;20006;-76
2021/01/17 14:27:21;;;;;;;21.80;13.43;;;;;;;;;;6300631;22;19999;-77
2021/01/17 14:29:47;;;;;;;20.70;13.35;;;;;;;;;;6274044;22;20444;-77